Time;durP1;ratioP1;P1;durP2;ratioP2;P2;SDS_P1;SDS_P2;PMS_P1;PMS_P2;Temp;Humidity;BMP_temperature;BMP_pressure;BME280_temperature;BME280_humidity;BME280_pressure;Samples;Min_cycle;Max_cycle;Signal;HPM_P1;HPM_P2
2022/09/30 00:01:51;;;;;;;25.85;13.43;;;7.90;99.50;;;;;;5008229;28;20120;-79
2022/09/30 00:04:22;;;;;;;24.90;12.88;;;7.80;99.40;;;;;;5007106;28;20331;-79
2022/09/30 00:06:49;;;;;;;31.95;14.70;;;7.80;99.40;;;;;;5000919;28;20083;-78
2022/09/30 00:09:15;;;;;;;28.27;14.18;;;7.70;99.50;;;;;;5007733;28;20029;-79
2022/09/30 00:11:41;;;;;;;29.40;14.95;;;7.80;99.60;;;;;;5007330;28;20366;-79
2022/09/30 00:14:14;;;;;;;26.58;14.55;;;7.80;99.70;;;;;;5009086;28;20064;-78
2022/09/30 00:16:39;;;;;;;28.65;15.70;;;7.80;99.70;;;;;;5009272;28;20375;-78
2022/09/30 00:19:05;;;;;;;28.83;14.35;;;7.80;99.60;;;;;;5008658;28;20099;-78
2022/09/30 00:21:32;;;;;;;29.23;15.30;;;7.70;99.60;;;;;;5010697;28;20123;-79
2022/09/30 00:23:58;;;;;;;31.30;15.73;;;7.70;99.60;;;;;;5003064;28;20584;-78
2022/09/30 00:26:24;;;;;;;32.38;15.07;;;7.70;99.70;;;;;;5007275;28;20390;-79
2022/09/30 00:28:52;;;;;;;35.08;16.35;;;7.70;99.70;;;;;;5008104;28;20030;-79
2022/09/30 00:31:19;;;;;;;28.38;16.73;;;7.60;99.70;;;;;;5009103;28;20082;-79
2022/09/30 00:34:05;;;;;;;27.27;14.88;;;7.60;99.60;;;;;;5008779;28;20398;-79
2022/09/30 00:36:51;;;;;;;28.33;14.63;;;7.50;99.70;;;;;;5011543;28;20044;-79
2022/09/30 00:39:20;;;;;;;30.35;14.60;;;7.50;99.70;;;;;;4996385;28;20073;-79
2022/09/30 00:41:48;;;;;;;30.90;14.60;;;7.40;99.70;;;;;;5006519;28;20045;-79
2022/09/30 00:44:45;;;;;;;30.50;15.07;;;7.30;99.70;;;;;;5013046;28;20030;-79
2022/09/30 00:47:44;;;;;;;28.90;14.43;;;7.30;99.70;;;;;;5001156;28;20030;-79
2022/09/30 00:50:19;;;;;;;29.63;14.40;;;7.20;99.70;;;;;;5025104;28;20036;-79
2022/09/30 00:52:49;;;;;;;31.30;15.15;;;7.30;99.90;;;;;;5010869;28;20076;-79
2022/09/30 00:55:36;;;;;;;28.70;15.63;;;7.30;99.80;;;;;;5008951;28;20068;-79
2022/09/30 00:58:04;;;;;;;37.10;16.23;;;7.50;99.90;;;;;;5004020;28;20082;-78
2022/09/30 01:00:29;;;;;;;33.88;15.70;;;7.50;99.90;;;;;;5012531;28;20033;-78
2022/09/30 01:02:55;;;;;;;35.58;16.92;;;7.60;99.90;;;;;;5013118;28;20022;-78
2022/09/30 01:05:23;;;;;;;37.75;16.60;;;7.70;99.90;;;;;;5012700;28;20066;-79
2022/09/30 01:07:49;;;;;;;34.15;16.67;;;7.70;99.90;;;;;;5011672;28;20450;-79
2022/09/30 01:10:14;;;;;;;33.88;17.58;;;7.80;99.90;;;;;;5009547;28;20114;-79
2022/09/30 01:12:40;;;;;;;33.17;15.95;;;7.80;99.90;;;;;;5011624;28;20072;-79
2022/09/30 01:15:06;;;;;;;31.80;16.55;;;7.90;99.90;;;;;;5002003;28;20424;-79
2022/09/30 01:17:42;;;;;;;38.58;17.65;;;8.00;99.90;;;;;;5022530;28;20056;-78
2022/09/30 01:20:29;;;;;;;33.55;16.65;;;8.00;99.90;;;;;;5009671;28;20431;-79
2022/09/30 01:23:41;;;;;;;33.25;15.68;;;8.00;99.90;;;;;;5012929;28;20103;-79
2022/09/30 01:26:22;;;;;;;33.65;16.02;;;8.00;99.90;;;;;;5011866;28;20172;-78
2022/09/30 01:28:54;;;;;;;;;;;8.00;99.90;;;;;;5012495;28;20168;-79
2022/09/30 01:31:56;;;;;;;38.70;14.40;;;8.00;99.90;;;;;;5012204;28;19944;-79
2022/09/30 01:35:00;;;;;;;30.90;14.60;;;8.00;99.90;;;;;;5012284;28;20133;-79
2022/09/30 01:37:37;;;;;;;30.92;15.13;;;8.00;99.90;;;;;;4983487;28;20041;-79
2022/09/30 01:40:24;;;;;;;29.98;15.50;;;8.00;99.90;;;;;;5030983;28;21394;-77
2022/09/30 01:42:54;;;;;;;33.95;15.98;;;8.00;99.90;;;;;;5032267;28;20103;-79
2022/09/30 01:45:41;;;;;;;39.00;18.27;;;7.90;99.90;;;;;;5033780;28;20032;-78
2022/09/30 01:48:31;;;;;;;33.03;16.38;;;8.00;99.90;;;;;;5026445;28;20140;-79
2022/09/30 01:51:08;;;;;;;36.72;17.27;;;8.00;99.90;;;;;;5001186;28;20117;-79
2022/09/30 01:54:00;;;;;;;38.33;17.38;;;8.00;99.90;;;;;;5013787;28;20056;-79
2022/09/30 01:56:39;;;;;;;33.47;17.35;;;7.90;99.90;;;;;;5008685;28;20411;-79
2022/09/30 01:59:17;;;;;;;38.13;16.92;;;7.80;99.90;;;;;;5022394;28;20174;-78
2022/09/30 02:01:55;;;;;;;35.55;16.77;;;7.90;99.90;;;;;;5011905;28;20021;-79
2022/09/30 02:04:57;;;;;;;39.35;17.08;;;7.90;99.90;;;;;;5009311;28;20096;-79
2022/09/30 02:07:38;;;;;;;38.50;16.80;;;7.90;99.90;;;;;;4997446;28;20573;-80
2022/09/30 02:10:16;;;;;;;39.88;17.75;;;7.80;99.90;;;;;;5022614;28;20014;-79
2022/09/30 02:12:48;;;;;;;36.17;17.10;;;7.80;99.90;;;;;;5004364;28;20038;-79
2022/09/30 02:15:25;;;;;;;40.35;18.83;;;7.80;99.90;;;;;;5011724;28;20030;-79
2022/09/30 02:18:23;;;;;;;39.63;17.90;;;7.70;99.90;;;;;;5015001;28;20081;-80
2022/09/30 02:20:55;;;;;;;38.25;18.60;;;7.70;99.90;;;;;;4983671;28;20048;-78
2022/09/30 02:23:26;;;;;;;39.58;17.73;;;7.70;99.90;;;;;;5007795;28;20041;-78
2022/09/30 02:26:06;;;;;;;38.35;18.10;;;7.70;99.90;;;;;;5009950;28;20124;-79
2022/09/30 02:28:35;;;;;;;42.72;18.65;;;7.60;99.90;;;;;;5010517;28;20042;-79
2022/09/30 02:31:04;;;;;;;43.78;17.92;;;7.60;99.90;;;;;;4999817;28;20502;-80
2022/09/30 02:33:40;;;;;;;38.97;18.08;;;7.60;99.90;;;;;;5022670;28;20026;-79
2022/09/30 02:36:10;;;;;;;40.92;17.88;;;7.60;99.90;;;;;;5010825;28;20034;-78
2022/09/30 02:38:42;;;;;;;43.95;18.40;;;7.50;99.90;;;;;;4996820;28;20420;-79
2022/09/30 02:41:21;;;;;;;45.30;19.05;;;7.50;99.90;;;;;;5007993;28;20041;-78
2022/09/30 02:43:49;;;;;;;41.28;18.45;;;7.50;99.90;;;;;;5010085;28;20045;-79
2022/09/30 02:46:23;;;;;;;39.47;18.92;;;7.50;99.90;;;;;;5011012;28;20110;-79
2022/09/30 02:49:16;;;;;;;40.33;18.63;;;7.50;99.90;;;;;;5010518;28;20026;-79
2022/09/30 02:51:48;;;;;;;41.47;18.90;;;7.40;99.90;;;;;;5010512;28;20048;-78
2022/09/30 02:54:23;;;;;;;44.78;19.60;;;7.40;99.90;;;;;;5009217;28;20179;-80
2022/09/30 02:57:02;;;;;;;41.92;19.88;;;7.40;99.90;;;;;;5004875;28;20108;-80
2022/09/30 02:59:27;;;;;;;44.08;19.40;;;7.40;99.90;;;;;;5010863;28;20427;-80
2022/09/30 03:01:53;;;;;;;44.63;19.95;;;7.50;99.90;;;;;;5021126;28;20049;-80
2022/09/30 03:04:23;;;;;;;51.08;20.95;;;7.50;99.90;;;;;;5009861;28;20093;-80
2022/09/30 03:06:49;;;;;;;46.65;20.88;;;7.50;99.90;;;;;;5010267;28;20034;-80
2022/09/30 03:09:14;;;;;;;41.72;20.00;;;7.50;99.90;;;;;;5006174;28;20053;-80
2022/09/30 03:11:40;;;;;;;50.05;20.83;;;7.50;99.90;;;;;;5007923;28;20133;-80
2022/09/30 03:14:37;;;;;;;52.00;22.65;;;7.50;99.90;;;;;;5002883;28;20038;-79
2022/09/30 03:17:25;;;;;;;54.33;21.50;;;7.40;99.90;;;;;;5010284;28;20084;-80
2022/09/30 03:20:14;;;;;;;50.63;21.48;;;7.40;99.90;;;;;;5009623;28;20030;-80
2022/09/30 03:23:10;;;;;;;48.35;20.98;;;7.40;99.90;;;;;;5008820;28;20034;-79
2022/09/30 03:25:55;;;;;;;48.83;20.40;;;7.40;99.90;;;;;;5000616;28;20038;-80
2022/09/30 03:28:28;;;;;;;56.25;22.02;;;7.30;99.90;;;;;;5009423;28;20068;-79
2022/09/30 03:31:11;;;;;;;51.15;21.38;;;7.30;99.90;;;;;;5004213;28;20038;-79
2022/09/30 03:33:49;;;;;;;55.35;23.55;;;7.20;99.90;;;;;;5004528;28;20073;-79
2022/09/30 03:36:42;;;;;;;54.90;22.92;;;7.10;99.90;;;;;;5005581;28;20034;-79
2022/09/30 03:39:31;;;;;;;50.35;22.90;;;7.10;99.90;;;;;;5008296;28;20034;-79
2022/09/30 03:42:25;;;;;;;52.45;22.45;;;7.10;99.90;;;;;;4992396;28;20037;-79
2022/09/30 03:45:05;;;;;;;49.90;21.65;;;7.10;99.90;;;;;;5011391;28;20045;-79
2022/09/30 03:47:34;;;;;;;52.55;22.08;;;7.00;99.90;;;;;;5011011;28;20041;-79
2022/09/30 03:50:05;;;;;;;53.70;23.45;;;7.00;99.90;;;;;;5004933;28;20037;-79
2022/09/30 03:52:32;;;;;;;64.30;24.02;;;7.10;99.90;;;;;;5014677;28;20372;-79
2022/09/30 03:55:00;;;;;;;68.03;24.35;;;7.10;99.90;;;;;;5008124;28;20041;-79
2022/09/30 03:57:29;;;;;;;59.92;23.48;;;7.00;99.90;;;;;;5008509;28;20097;-80
2022/09/30 03:59:55;;;;;;;66.65;23.95;;;7.00;99.90;;;;;;5023075;28;20149;-80
2022/09/30 04:02:21;;;;;;;60.65;24.02;;;7.10;99.90;;;;;;5005054;28;20092;-79
2022/09/30 04:04:46;;;;;;;62.25;23.75;;;7.10;99.90;;;;;;4999875;28;20478;-80
2022/09/30 04:07:12;;;;;;;62.13;24.92;;;7.10;99.90;;;;;;4991311;28;20034;-79
2022/09/30 04:09:37;;;;;;;63.38;25.48;;;7.20;99.90;;;;;;5014505;28;20029;-80
2022/09/30 04:12:04;;;;;;;68.70;26.37;;;7.30;99.90;;;;;;5014265;28;20037;-80
2022/09/30 04:14:30;;;;;;;62.45;25.48;;;7.40;99.90;;;;;;5009234;28;20518;-80
2022/09/30 04:16:55;;;;;;;68.88;27.17;;;7.50;99.90;;;;;;5006432;28;20129;-79
2022/09/30 04:19:21;;;;;;;64.18;26.15;;;7.50;99.90;;;;;;5009313;28;20038;-79
2022/09/30 04:21:46;;;;;;;71.90;26.52;;;7.50;99.90;;;;;;5006236;28;20076;-80
2022/09/30 04:24:12;;;;;;;70.82;26.38;;;7.50;99.90;;;;;;5006502;28;20129;-80
2022/09/30 04:26:37;;;;;;;71.22;27.27;;;7.50;99.90;;;;;;5006290;28;20026;-80
2022/09/30 04:29:03;;;;;;;65.25;24.85;;;7.50;99.90;;;;;;5008275;28;20038;-69
2022/09/30 04:31:28;;;;;;;65.10;26.05;;;7.40;99.90;;;;;;5018846;28;20044;-68
2022/09/30 04:33:55;;;;;;;62.03;25.42;;;7.40;99.90;;;;;;5012655;28;20495;-67
2022/09/30 04:36:21;;;;;;;67.93;24.15;;;7.30;99.90;;;;;;5008835;28;20022;-67
2022/09/30 04:38:47;;;;;;;65.97;25.42;;;7.30;99.90;;;;;;4995385;28;20045;-68
2022/09/30 04:41:17;;;;;;;61.53;24.80;;;7.30;99.90;;;;;;5004295;28;20030;-67
2022/09/30 04:43:45;;;;;;;72.43;24.43;;;7.30;99.90;;;;;;5004655;28;20033;-67
2022/09/30 04:46:11;;;;;;;62.00;25.33;;;7.20;99.90;;;;;;5009226;28;20026;-68
2022/09/30 04:48:37;;;;;;;67.88;24.73;;;7.20;99.90;;;;;;5008784;28;20510;-68
2022/09/30 04:51:03;;;;;;;60.28;24.23;;;7.10;99.90;;;;;;4998433;28;20045;-68
2022/09/30 04:53:29;;;;;;;65.28;24.65;;;7.10;99.90;;;;;;5009033;28;20053;-68
2022/09/30 04:55:59;;;;;;;65.78;24.20;;;7.00;99.90;;;;;;5000042;28;20033;-68
2022/09/30 04:58:25;;;;;;;65.30;25.20;;;7.00;99.90;;;;;;5004420;28;20148;-68
2022/09/30 05:00:50;;;;;;;67.45;23.88;;;7.00;99.90;;;;;;5003550;28;20091;-68
2022/09/30 05:03:17;;;;;;;71.75;26.38;;;6.90;99.90;;;;;;5005092;28;20129;-67
2022/09/30 05:05:43;;;;;;;64.28;24.65;;;7.00;99.90;;;;;;5005259;28;20026;-68
2022/09/30 05:08:08;;;;;;;70.80;25.45;;;7.10;99.90;;;;;;5004216;28;20082;-67
2022/09/30 05:10:34;;;;;;;63.22;24.60;;;7.00;99.90;;;;;;5005427;28;20054;-68
2022/09/30 05:12:59;;;;;;;66.53;24.13;;;7.00;99.90;;;;;;4994717;28;20046;-67
2022/09/30 05:15:25;;;;;;;73.88;25.77;;;7.00;99.90;;;;;;5008728;28;20036;-67
2022/09/30 05:17:52;;;;;;;74.75;25.38;;;7.00;99.90;;;;;;5000475;28;20051;-67
2022/09/30 05:20:18;;;;;;;62.92;24.55;;;7.00;99.90;;;;;;4999928;28;20111;-67
2022/09/30 05:22:44;;;;;;;67.30;24.85;;;6.90;99.90;;;;;;5010349;28;20088;-67
2022/09/30 05:25:09;;;;;;;66.32;26.17;;;6.90;99.90;;;;;;5008723;28;20046;-67
2022/09/30 05:27:35;;;;;;;67.38;25.60;;;6.90;99.90;;;;;;5007999;28;20034;-67
2022/09/30 05:30:00;;;;;;;68.45;26.17;;;6.70;99.90;;;;;;4999493;28;20105;-67
2022/09/30 05:32:26;;;;;;;70.82;25.42;;;6.60;99.90;;;;;;5005199;28;20458;-67
2022/09/30 05:34:53;;;;;;;74.93;24.80;;;6.60;99.90;;;;;;5003767;28;20036;-66
2022/09/30 05:37:18;;;;;;;63.75;23.75;;;6.60;99.90;;;;;;5007917;28;20211;-66
2022/09/30 05:39:44;;;;;;;77.03;24.80;;;6.70;99.90;;;;;;5002217;28;20522;-66
2022/09/30 05:42:09;;;;;;;75.70;25.13;;;6.60;99.90;;;;;;5000189;28;20065;-69
2022/09/30 05:44:35;;;;;;;65.68;24.73;;;6.60;99.90;;;;;;5001013;28;20033;-66
2022/09/30 05:47:00;;;;;;;76.47;24.80;;;6.60;99.90;;;;;;5003780;28;20355;-67
2022/09/30 05:49:26;;;;;;;72.30;25.90;;;6.60;99.90;;;;;;5001020;28;20038;-67
2022/09/30 05:51:52;;;;;;;70.65;25.15;;;6.60;99.90;;;;;;5004027;28;20026;-67
2022/09/30 05:54:17;;;;;;;76.25;25.10;;;6.60;99.90;;;;;;5010041;28;20041;-66
2022/09/30 05:56:43;;;;;;;75.40;26.63;;;6.70;99.90;;;;;;5002662;28;20034;-70
2022/09/30 05:59:09;;;;;;;81.88;26.05;;;6.70;99.90;;;;;;5008667;28;20113;-67
2022/09/30 06:01:35;;;;;;;80.93;28.30;;;6.80;99.90;;;;;;5006393;28;20133;-68
2022/09/30 06:04:00;;;;;;;89.43;29.15;;;6.70;99.90;;;;;;5003767;28;20060;-67
2022/09/30 06:06:26;;;;;;;82.90;28.95;;;6.80;99.90;;;;;;5014605;28;20050;-69
2022/09/30 06:08:51;;;;;;;82.55;27.75;;;6.80;99.90;;;;;;5008394;28;20037;-67
2022/09/30 06:11:19;;;;;;;79.03;29.35;;;6.90;99.90;;;;;;5008302;28;20037;-67
2022/09/30 06:13:46;;;;;;;79.53;29.50;;;7.00;99.90;;;;;;5011278;28;20049;-67
2022/09/30 06:16:12;;;;;;;78.65;29.75;;;7.00;99.90;;;;;;5023025;28;20134;-67
2022/09/30 06:18:40;;;;;;;91.75;29.52;;;7.10;99.90;;;;;;5011275;28;20133;-69
2022/09/30 06:21:07;;;;;;;95.35;30.95;;;7.10;99.90;;;;;;4998912;28;20180;-67
2022/09/30 06:23:34;;;;;;;91.28;30.20;;;7.10;99.90;;;;;;4998582;28;20045;-67
2022/09/30 06:26:00;;;;;;;91.30;30.67;;;7.20;99.90;;;;;;5007077;28;20359;-67
2022/09/30 06:28:26;;;;;;;97.63;32.80;;;7.20;99.90;;;;;;5007842;28;20124;-67
2022/09/30 06:30:52;;;;;;;96.07;33.85;;;7.20;99.90;;;;;;5008554;28;20254;-67
2022/09/30 06:33:17;;;;;;;93.80;31.00;;;7.30;99.90;;;;;;5009262;28;20375;-67
2022/09/30 06:35:46;;;;;;;100.28;31.92;;;7.30;99.90;;;;;;5010329;28;20033;-67
2022/09/30 06:38:14;;;;;;;100.45;33.25;;;7.40;99.90;;;;;;5004089;28;20026;-68
2022/09/30 06:40:40;;;;;;;105.20;33.85;;;7.40;99.90;;;;;;5001981;28;20050;-67
2022/09/30 06:43:06;;;;;;;106.50;33.83;;;7.50;99.90;;;;;;5008690;28;20105;-67
2022/09/30 06:45:34;;;;;;;103.88;32.72;;;7.60;99.90;;;;;;5009850;28;20113;-67
2022/09/30 06:48:00;;;;;;;100.10;33.42;;;7.60;99.90;;;;;;5009214;28;20122;-67
2022/09/30 06:50:26;;;;;;;103.07;33.28;;;7.60;99.90;;;;;;5007152;28;20135;-70
2022/09/30 06:52:58;;;;;;;103.93;35.10;;;7.70;99.90;;;;;;5005388;28;20077;-68
2022/09/30 06:55:25;;;;;;;102.45;34.25;;;7.70;99.90;;;;;;5000710;28;20244;-68
2022/09/30 06:57:51;;;;;;;98.72;32.92;;;7.80;99.90;;;;;;5007088;28;20048;-70
2022/09/30 07:00:17;;;;;;;109.97;34.15;;;7.80;99.90;;;;;;5008467;28;20041;-67
2022/09/30 07:02:42;;;;;;;110.68;35.92;;;7.90;99.90;;;;;;5010383;28;20044;-67
2022/09/30 07:05:08;;;;;;;104.63;34.30;;;7.90;99.90;;;;;;5006005;28;20038;-67
2022/09/30 07:07:35;;;;;;;117.10;35.03;;;8.00;99.90;;;;;;5009532;28;20052;-67
2022/09/30 07:10:02;;;;;;;106.28;34.63;;;8.00;99.90;;;;;;5019109;28;20048;-70
2022/09/30 07:12:27;;;;;;;110.95;35.47;;;8.00;99.90;;;;;;4998482;28;20090;-68
2022/09/30 07:14:54;;;;;;;121.03;35.65;;;8.10;99.90;;;;;;5008658;28;20044;-67
2022/09/30 07:17:20;;;;;;;102.60;34.95;;;8.10;99.90;;;;;;5000010;28;20030;-67
2022/09/30 07:19:46;;;;;;;125.90;36.38;;;8.20;99.90;;;;;;5002414;28;20037;-67
2022/09/30 07:22:27;;;;;;;120.18;35.72;;;8.20;99.90;;;;;;5010077;28;20030;-67
2022/09/30 07:24:53;;;;;;;111.75;34.40;;;8.30;99.90;;;;;;5008621;28;20033;-67
2022/09/30 07:27:19;;;;;;;110.03;35.42;;;8.40;99.90;;;;;;5002769;28;20100;-67
2022/09/30 07:29:46;;;;;;;109.32;34.60;;;8.50;99.90;;;;;;5003797;28;20378;-68
2022/09/30 07:32:12;;;;;;;103.82;33.78;;;8.60;99.90;;;;;;5006157;28;20584;-67
2022/09/30 07:34:41;;;;;;;120.57;38.15;;;8.70;99.90;;;;;;5006312;28;20044;-66
2022/09/30 07:37:08;;;;;;;113.88;36.75;;;8.70;99.90;;;;;;5004218;28;20044;-67
2022/09/30 07:39:34;;;;;;;115.72;37.53;;;8.80;99.90;;;;;;5007191;28;20133;-67
2022/09/30 07:42:01;;;;;;;116.13;37.47;;;8.90;99.90;;;;;;5004952;28;20129;-67
2022/09/30 07:44:27;;;;;;;116.65;37.47;;;9.00;99.90;;;;;;5009592;28;20090;-67
2022/09/30 07:46:53;;;;;;;116.22;38.80;;;9.10;99.90;;;;;;5005482;28;20405;-67
2022/09/30 07:49:24;;;;;;;119.53;39.28;;;9.10;99.90;;;;;;5000727;28;20032;-68
2022/09/30 07:51:51;;;;;;;117.60;38.35;;;9.20;99.90;;;;;;5004248;28;20104;-68
2022/09/30 07:54:21;;;;;;;115.85;38.85;;;9.30;99.90;;;;;;5005902;28;20052;-67
2022/09/30 07:56:47;;;;;;;115.13;38.30;;;9.40;99.90;;;;;;5001523;28;20442;-66
2022/09/30 07:59:13;;;;;;;118.88;38.00;;;9.60;99.90;;;;;;5008032;28;20042;-67
2022/09/30 08:01:39;;;;;;;108.28;37.47;;;9.70;99.90;;;;;;5005914;28;20419;-67
2022/09/30 08:04:07;;;;;;;111.65;37.47;;;9.80;99.60;;;;;;4998009;28;20360;-68
2022/09/30 08:06:37;;;;;;;116.68;38.63;;;10.00;99.40;;;;;;5005217;28;20516;-67
2022/09/30 08:09:03;;;;;;;121.95;38.80;;;10.10;99.10;;;;;;5004487;28;20030;-67
2022/09/30 08:11:32;;;;;;;114.22;37.10;;;10.30;98.90;;;;;;5006476;28;20049;-67
2022/09/30 08:13:58;;;;;;;113.43;37.72;;;10.40;98.30;;;;;;5006475;28;20057;-67
2022/09/30 08:16:24;;;;;;;105.03;37.60;;;10.50;98.00;;;;;;5006890;28;20030;-67
2022/09/30 08:18:55;;;;;;;104.28;35.53;;;10.60;97.10;;;;;;4999253;28;20038;-67
2022/09/30 08:21:21;;;;;;;104.47;35.08;;;10.80;96.70;;;;;;5016450;28;20108;-69
2022/09/30 08:23:46;;;;;;;93.65;34.97;;;11.00;96.70;;;;;;5005957;28;20116;-67
2022/09/30 08:26:12;;;;;;;85.03;33.47;;;11.20;96.10;;;;;;5005817;28;20030;-68
2022/09/30 08:28:39;;;;;;;77.85;30.98;;;11.30;95.30;;;;;;5004942;28;20114;-68
2022/09/30 08:31:07;;;;;;;74.55;30.38;;;11.50;95.10;;;;;;5004969;28;20037;-67
2022/09/30 08:33:33;;;;;;;69.13;28.73;;;11.50;94.20;;;;;;4995620;28;20127;-67
2022/09/30 08:36:09;;;;;;;59.53;25.08;;;11.60;93.40;;;;;;5000328;28;20060;-67
2022/09/30 08:38:35;;;;;;;56.78;24.17;;;11.70;93.30;;;;;;4994619;28;20049;-67
2022/09/30 08:41:16;;;;;;;49.53;23.45;;;11.70;93.10;;;;;;5002092;28;20359;-68
2022/09/30 08:44:17;;;;;;;50.85;24.23;;;11.90;93.40;;;;;;5003020;28;20078;-71
2022/09/30 08:46:48;;;;;;;39.22;20.17;;;11.80;93.60;;;;;;5005788;28;20034;-67
2022/09/30 08:49:28;;;;;;;33.92;19.05;;;12.00;93.30;;;;;;5004719;28;20451;-67
2022/09/30 08:51:57;;;;;;;35.67;19.50;;;12.10;91.50;;;;;;5006710;28;20061;-68
2022/09/30 08:54:28;;;;;;;27.00;15.18;;;12.30;92.50;;;;;;5001214;28;20343;-67
2022/09/30 08:56:55;;;;;;;22.08;15.68;;;12.40;90.90;;;;;;5003551;28;20153;-67
2022/09/30 08:59:27;;;;;;;24.52;14.13;;;12.60;91.30;;;;;;5010114;28;20458;-67
2022/09/30 09:02:21;;;;;;;19.23;14.00;;;12.70;90.30;;;;;;5007756;28;20038;-68
2022/09/30 09:04:51;;;;;;;23.40;13.75;;;12.80;89.70;;;;;;5006288;28;20036;-67
2022/09/30 09:07:47;;;;;;;15.50;12.00;;;12.90;89.70;;;;;;5012127;28;20033;-68
2022/09/30 09:10:22;;;;;;;17.75;11.43;;;13.00;89.60;;;;;;4998013;28;20030;-67
2022/09/30 09:13:02;;;;;;;11.65;8.38;;;13.30;88.60;;;;;;5024399;28;20052;-67
2022/09/30 09:15:53;;;;;;;13.15;9.00;;;13.30;88.00;;;;;;5012583;28;20307;-67
2022/09/30 09:18:25;;;;;;;10.80;8.60;;;13.50;88.20;;;;;;5011909;28;20434;-68
2022/09/30 09:21:20;;;;;;;9.75;7.50;;;13.60;88.30;;;;;;5011877;28;20124;-67
2022/09/30 09:23:48;;;;;;;12.32;7.53;;;13.60;87.20;;;;;;4986595;28;20352;-67
2022/09/30 09:26:15;;;;;;;9.55;7.07;;;13.70;86.80;;;;;;5007277;28;20026;-67
2022/09/30 09:29:02;;;;;;;9.40;7.10;;;14.00;87.30;;;;;;5003514;28;20061;-67
2022/09/30 09:31:27;;;;;;;8.77;6.53;;;14.10;86.60;;;;;;5011097;28;20029;-67
2022/09/30 09:34:00;;;;;;;10.65;8.40;;;13.90;84.90;;;;;;5011431;28;20045;-67
2022/09/30 09:36:34;;;;;;;10.30;7.32;;;14.00;85.80;;;;;;5011677;28;20143;-67
2022/09/30 09:39:24;;;;;;;10.75;7.53;;;14.10;85.70;;;;;;5010487;28;20034;-68
2022/09/30 09:42:01;;;;;;;10.88;8.00;;;14.40;86.30;;;;;;5008490;28;20034;-68
2022/09/30 09:44:47;;;;;;;11.40;7.55;;;14.50;85.20;;;;;;5000821;28;20125;-67
2022/09/30 09:47:16;;;;;;;11.88;7.30;;;14.40;84.90;;;;;;4999734;28;20129;-67
2022/09/30 09:49:43;;;;;;;11.65;6.85;;;14.50;83.90;;;;;;5011523;28;20030;-67
2022/09/30 09:52:11;;;;;;;9.15;6.35;;;14.30;82.90;;;;;;5010281;28;20164;-69
2022/09/30 09:54:42;;;;;;;11.13;6.88;;;14.60;84.00;;;;;;5004983;28;20045;-67
2022/09/30 09:57:16;;;;;;;7.55;6.35;;;14.40;83.20;;;;;;5009195;28;20170;-67
2022/09/30 10:03:17;;;;;;;7.88;5.68;;;14.40;81.60;;;;;;5007837;28;20053;-67
2022/09/30 10:05:42;;;;;;;6.97;4.72;;;14.50;82.70;;;;;;5010639;28;20040;-67
2022/09/30 10:08:15;;;;;;;9.00;4.97;;;14.50;81.80;;;;;;5010434;28;20109;-67
2022/09/30 10:10:45;;;;;;;8.70;5.00;;;14.70;81.20;;;;;;4997275;28;20157;-67
2022/09/30 10:13:29;;;;;;;7.53;4.72;;;14.80;81.60;;;;;;5005091;28;20505;-67
2022/09/30 10:15:57;;;;;;;7.70;3.90;;;15.20;81.10;;;;;;5011120;28;20026;-67
2022/09/30 10:18:32;;;;;;;10.10;4.50;;;14.60;78.00;;;;;;5005069;28;20360;-67
2022/09/30 10:21:01;;;;;;;6.75;4.28;;;14.20;79.50;;;;;;5010551;28;20025;-67
2022/09/30 10:23:31;;;;;;;5.47;3.85;;;13.90;81.10;;;;;;5009805;28;20400;-67
2022/09/30 10:26:02;;;;;;;9.25;4.95;;;14.20;81.50;;;;;;5011192;28;20490;-67
2022/09/30 10:28:30;;;;;;;6.93;4.47;;;14.70;81.60;;;;;;4997036;28;20041;-67
2022/09/30 10:31:13;;;;;;;8.32;5.20;;;14.40;79.90;;;;;;5009386;28;20042;-67
2022/09/30 10:33:53;;;;;;;7.57;4.53;;;14.00;79.20;;;;;;5009952;28;20135;-67
2022/09/30 10:36:20;;;;;;;6.32;4.63;;;13.80;80.40;;;;;;4997538;28;20049;-67
2022/09/30 10:39:04;;;;;;;6.03;4.60;;;14.10;81.80;;;;;;5008756;28;20545;-68
2022/09/30 10:41:32;;;;;;;8.70;5.35;;;14.30;80.90;;;;;;5005427;28;20330;-68
2022/09/30 10:44:04;;;;;;;8.85;5.90;;;14.90;79.60;;;;;;5010399;28;20354;-67
2022/09/30 10:46:35;;;;;;;7.50;5.65;;;15.50;78.50;;;;;;5010534;28;20396;-67
2022/09/30 10:49:19;;;;;;;8.07;6.03;;;16.00;78.10;;;;;;5010307;28;20084;-68
2022/09/30 10:51:45;;;;;;;12.50;5.93;;;16.10;75.30;;;;;;5005150;28;20128;-68
2022/09/30 10:54:39;;;;;;;9.20;5.65;;;16.50;74.10;;;;;;5008272;28;20474;-68
2022/09/30 10:57:13;;;;;;;8.05;5.85;;;16.80;74.50;;;;;;5006305;28;20058;-69
2022/09/30 10:59:41;;;;;;;7.68;5.93;;;17.00;73.50;;;;;;5010792;28;20034;-68
2022/09/30 11:02:45;;;;;;;8.10;5.55;;;16.60;69.50;;;;;;5010053;28;20056;-68
2022/09/30 11:05:18;;;;;;;11.65;6.68;;;16.80;72.20;;;;;;4948414;29;20042;-67
2022/09/30 11:07:52;;;;;;;8.18;6.43;;;17.10;72.30;;;;;;4948914;29;20037;-67
2022/09/30 11:10:38;;;;;;;9.82;6.22;;;16.80;70.50;;;;;;4978342;28;20057;-71
2022/09/30 11:13:14;;;;;;;11.20;6.35;;;16.90;72.10;;;;;;5003456;28;20466;-68
2022/09/30 11:16:22;;;;;;;8.35;5.60;;;16.30;70.60;;;;;;5010121;28;20034;-68
2022/09/30 11:19:19;;;;;;;8.15;5.18;;;15.80;71.10;;;;;;4997386;28;20042;-67
2022/09/30 11:21:48;;;;;;;8.55;5.18;;;16.20;70.70;;;;;;5008987;28;20026;-67
2022/09/30 11:24:14;;;;;;;8.18;5.00;;;16.70;71.70;;;;;;5003857;28;20053;-67
2022/09/30 11:27:13;;;;;;;8.25;5.20;;;16.60;70.80;;;;;;4997266;28;20546;-68
2022/09/30 11:29:39;;;;;;;8.98;5.75;;;16.20;70.60;;;;;;5003907;28;20337;-67
2022/09/30 11:32:32;;;;;;;7.38;5.45;;;16.50;68.50;;;;;;5007577;28;20112;-69
2022/09/30 11:35:15;;;;;;;8.27;5.13;;;16.60;68.50;;;;;;5008807;28;20069;-71
2022/09/30 11:38:08;;;;;;;7.50;4.90;;;17.30;68.20;;;;;;5008376;28;20048;-68
2022/09/30 11:40:36;;;;;;;8.05;4.88;;;17.20;67.60;;;;;;5005556;28;20037;-67
2022/09/30 11:43:15;;;;;;;7.18;5.15;;;17.50;66.40;;;;;;5003756;28;20216;-68
2022/09/30 11:46:09;;;;;;;6.65;4.15;;;16.80;66.50;;;;;;5003648;28;20037;-68
2022/09/30 11:48:56;;;;;;;7.00;4.70;;;16.80;69.10;;;;;;5007818;28;20308;-67
2022/09/30 11:51:34;;;;;;;8.20;4.72;;;16.80;68.60;;;;;;5009435;28;20033;-67
2022/09/30 11:54:07;;;;;;;6.47;4.80;;;17.10;68.00;;;;;;5006214;28;20120;-67
2022/09/30 11:56:48;;;;;;;7.07;4.00;;;17.60;65.30;;;;;;5007632;28;20160;-68
2022/09/30 11:59:22;;;;;;;;;;;17.30;65.70;;;;;;4996536;28;20099;-67
2022/09/30 12:01:52;;;;;;;6.75;3.53;;;17.00;64.20;;;;;;5008140;28;19909;-68
2022/09/30 12:04:28;;;;;;;6.18;3.90;;;17.70;65.60;;;;;;5008909;28;20116;-68
2022/09/30 12:07:05;;;;;;;6.40;4.10;;;18.20;63.10;;;;;;5007457;28;20038;-68
2022/09/30 12:09:37;;;;;;;9.65;4.82;;;18.30;59.70;;;;;;5007210;28;20417;-68
2022/09/30 12:12:15;;;;;;;7.28;4.10;;;18.50;61.30;;;;;;5007113;28;20116;-68
2022/09/30 12:14:49;;;;;;;6.95;3.85;;;18.70;59.70;;;;;;5009003;28;20041;-68
2022/09/30 12:17:36;;;;;;;5.68;3.28;;;19.30;59.20;;;;;;5008013;28;20133;-68
2022/09/30 12:20:16;;;;;;;5.78;3.85;;;18.90;59.10;;;;;;5006724;28;20045;-69
2022/09/30 12:22:45;;;;;;;6.53;4.00;;;19.20;58.00;;;;;;5008229;28;20129;-69
2022/09/30 12:25:17;;;;;;;6.47;3.95;;;18.60;58.00;;;;;;5003179;28;20264;-68
2022/09/30 12:30:15;;;;;;;8.38;3.90;;;19.10;59.30;;;;;;5007661;28;20044;-68
2022/09/30 12:31:07;;;;;;;6.88;3.95;;;19.60;59.10;;;;;;5003593;28;20132;-69
2022/09/30 12:34:07;;;;;;;6.45;4.00;;;19.80;57.40;;;;;;5003762;28;20041;-68
2022/09/30 12:37:06;;;;;;;8.38;4.53;;;19.70;57.00;;;;;;4993677;28;20092;-68
2022/09/30 12:39:54;;;;;;;7.63;4.10;;;19.50;55.70;;;;;;5007776;28;20053;-68
2022/09/30 12:42:47;;;;;;;6.35;4.28;;;18.20;59.70;;;;;;5000145;28;20038;-68
2022/09/30 12:45:49;;;;;;;7.30;4.47;;;17.30;61.50;;;;;;5011400;28;20065;-67
2022/09/30 12:48:19;;;;;;;7.00;4.35;;;17.70;60.80;;;;;;5009799;28;20046;-68
2022/09/30 12:50:48;;;;;;;6.93;4.72;;;17.20;62.10;;;;;;5006877;28;20109;-67
2022/09/30 12:53:23;;;;;;;6.68;4.13;;;17.00;63.20;;;;;;5002653;28;20077;-68
2022/09/30 12:55:48;;;;;;;6.20;3.95;;;17.50;61.90;;;;;;5008965;28;20103;-68
2022/09/30 12:58:20;;;;;;;9.23;4.05;;;18.80;60.40;;;;;;5011665;28;20049;-69
2022/09/30 13:01:05;;;;;;;6.68;3.90;;;19.30;57.90;;;;;;5012404;28;20033;-68
2022/09/30 13:04:05;;;;;;;8.60;4.20;;;19.30;55.40;;;;;;5012219;28;20413;-68
2022/09/30 13:06:46;;;;;;;7.25;3.85;;;19.70;56.20;;;;;;5001601;28;20069;-69
2022/09/30 13:09:29;;;;;;;8.15;4.10;;;20.10;55.80;;;;;;5008209;28;20045;-68
2022/09/30 13:11:55;;;;;;;6.07;3.55;;;20.60;52.20;;;;;;5000786;28;20121;-68
2022/09/30 13:14:36;;;;;;;7.22;3.70;;;20.90;49.60;;;;;;5012254;28;20128;-68